Terminal Aerodrome Forecast
Issued by NWS

Home | Current Version | Previous Version | Text Only | Print | Product List | Glossary On
Versions: 1 2 3 4 5 6 7 8 9 10 11 12 13 14 15
000
FTUS44 KOUN 211720
TAFWWR
TAF
KWWR 211720Z 2118/2218 21008KT P6SM BKN100
     FM212200 12008KT 5SM -RA BR SCT009 OVC025
      TEMPO 2201/2205 2SM -RA BR BKN009
     FM220500 01016KT 6SM BR SCT007 BKN012
     FM220900 35015G25KT 4SM BR OVC007
     FM221200 34018G28KT P6SM OVC050
     FM221500 32015KT P6SM SKC=

USA.gov is the U.S. government's official web portal to all federal, state and local government web resources and services.